sensor_id;sensor_type;location;lat;lon;timestamp;temperature;humidity
46490;DHT22;32204;49.160;8.580;2023-02-15T00:01:29;3.30;99.90
46490;DHT22;32204;49.160;8.580;2023-02-15T00:03:55;3.30;99.90
46490;DHT22;32204;49.160;8.580;2023-02-15T00:06:21;3.20;99.90
46490;DHT22;32204;49.160;8.580;2023-02-15T00:08:47;3.20;99.90
46490;DHT22;32204;49.160;8.580;2023-02-15T00:11:14;3.20;99.90
46490;DHT22;32204;49.160;8.580;2023-02-15T00:13:41;3.30;99.90
46490;DHT22;32204;49.160;8.580;2023-02-15T00:16:08;3.40;99.90
46490;DHT22;32204;49.160;8.580;2023-02-15T00:18:34;3.40;99.90
46490;DHT22;32204;49.160;8.580;2023-02-15T00:21:04;3.30;99.90
46490;DHT22;32204;49.160;8.580;2023-02-15T00:23:30;3.30;99.90
46490;DHT22;32204;49.160;8.580;2023-02-15T00:26:12;3.30;99.90
46490;DHT22;32204;49.160;8.580;2023-02-15T00:28:38;3.30;99.90
46490;DHT22;32204;49.160;8.580;2023-02-15T00:31:11;3.20;99.90
46490;DHT22;32204;49.160;8.580;2023-02-15T00:33:38;3.10;99.90
46490;DHT22;32204;49.160;8.580;2023-02-15T00:36:06;3.10;99.90
46490;DHT22;32204;49.160;8.580;2023-02-15T00:38:33;3.10;99.90
46490;DHT22;32204;49.160;8.580;2023-02-15T00:41:00;3.10;99.90
46490;DHT22;32204;49.160;8.580;2023-02-15T00:43:28;3.00;99.90
46490;DHT22;32204;49.160;8.580;2023-02-15T00:45:54;3.00;99.90
46490;DHT22;32204;49.160;8.580;2023-02-15T00:48:21;3.10;99.90
46490;DHT22;32204;49.160;8.580;2023-02-15T00:50:51;3.10;99.90
46490;DHT22;32204;49.160;8.580;2023-02-15T00:53:20;3.20;99.90
46490;DHT22;32204;49.160;8.580;2023-02-15T00:55:46;3.30;99.90
46490;DHT22;32204;49.160;8.580;2023-02-15T00:58:12;3.30;99.90
46490;DHT22;32204;49.160;8.580;2023-02-15T01:00:38;3.10;99.90
46490;DHT22;32204;49.160;8.580;2023-02-15T01:03:06;3.10;99.90
46490;DHT22;32204;49.160;8.580;2023-02-15T01:05:32;3.00;99.90
46490;DHT22;32204;49.160;8.580;2023-02-15T01:07:58;3.10;99.90
46490;DHT22;32204;49.160;8.580;2023-02-15T01:10:25;3.20;99.90
46490;DHT22;32204;49.160;8.580;2023-02-15T01:12:52;3.10;99.90
46490;DHT22;32204;49.160;8.580;2023-02-15T01:15:18;3.10;99.90
46490;DHT22;32204;49.160;8.580;2023-02-15T01:17:44;3.10;99.90
46490;DHT22;32204;49.160;8.580;2023-02-15T01:20:19;3.10;99.90
46490;DHT22;32204;49.160;8.580;2023-02-15T01:22:44;3.10;99.90
46490;DHT22;32204;49.160;8.580;2023-02-15T01:25:10;3.00;99.90
46490;DHT22;32204;49.160;8.580;2023-02-15T01:27:35;2.90;99.90
46490;DHT22;32204;49.160;8.580;2023-02-15T01:30:01;2.90;99.90
46490;DHT22;32204;49.160;8.580;2023-02-15T01:32:27;3.00;99.90
46490;DHT22;32204;49.160;8.580;2023-02-15T01:34:52;3.10;99.90
46490;DHT22;32204;49.160;8.580;2023-02-15T01:37:18;3.30;99.90
46490;DHT22;32204;49.160;8.580;2023-02-15T01:39:44;3.30;99.90
46490;DHT22;32204;49.160;8.580;2023-02-15T01:42:12;3.40;99.90
46490;DHT22;32204;49.160;8.580;2023-02-15T01:47:07;3.50;99.90
46490;DHT22;32204;49.160;8.580;2023-02-15T01:49:34;3.50;99.90
46490;DHT22;32204;49.160;8.580;2023-02-15T01:52:00;3.50;99.90
46490;DHT22;32204;49.160;8.580;2023-02-15T01:54:34;3.50;99.90
46490;DHT22;32204;49.160;8.580;2023-02-15T01:57:09;3.50;99.90
46490;DHT22;32204;49.160;8.580;2023-02-15T01:59:37;3.40;99.90
46490;DHT22;32204;49.160;8.580;2023-02-15T02:02:04;3.40;99.90
46490;DHT22;32204;49.160;8.580;2023-02-15T02:06:59;3.20;99.90
46490;DHT22;32204;49.160;8.580;2023-02-15T02:09:25;3.20;99.90
46490;DHT22;32204;49.160;8.580;2023-02-15T02:11:51;3.20;99.90
46490;DHT22;32204;49.160;8.580;2023-02-15T02:14:19;3.10;99.90
46490;DHT22;32204;49.160;8.580;2023-02-15T02:17:10;3.10;99.90
46490;DHT22;32204;49.160;8.580;2023-02-15T02:34:51;3.20;99.90
46490;DHT22;32204;49.160;8.580;2023-02-15T02:37:45;3.20;99.90
46490;DHT22;32204;49.160;8.580;2023-02-15T02:40:29;3.20;99.90
46490;DHT22;32204;49.160;8.580;2023-02-15T02:43:01;3.20;99.90
46490;DHT22;32204;49.160;8.580;2023-02-15T02:45:39;3.20;99.90
46490;DHT22;32204;49.160;8.580;2023-02-15T02:48:13;3.10;99.90
46490;DHT22;32204;49.160;8.580;2023-02-15T02:50:40;3.00;99.90
46490;DHT22;32204;49.160;8.580;2023-02-15T02:53:06;2.90;99.90
46490;DHT22;32204;49.160;8.580;2023-02-15T02:55:42;2.80;99.90
46490;DHT22;32204;49.160;8.580;2023-02-15T02:58:17;2.80;99.90
46490;DHT22;32204;49.160;8.580;2023-02-15T03:00:53;2.80;99.90
46490;DHT22;32204;49.160;8.580;2023-02-15T03:03:46;2.90;99.90
46490;DHT22;32204;49.160;8.580;2023-02-15T03:06:16;2.90;99.90
46490;DHT22;32204;49.160;8.580;2023-02-15T03:08:47;3.10;99.90
46490;DHT22;32204;49.160;8.580;2023-02-15T03:11:14;3.10;99.90
46490;DHT22;32204;49.160;8.580;2023-02-15T03:13:40;3.20;99.90
46490;DHT22;32204;49.160;8.580;2023-02-15T03:16:07;3.10;99.90
46490;DHT22;32204;49.160;8.580;2023-02-15T03:19:13;3.00;99.90
46490;DHT22;32204;49.160;8.580;2023-02-15T03:21:42;3.00;99.90
46490;DHT22;32204;49.160;8.580;2023-02-15T03:24:19;2.90;99.90
46490;DHT22;32204;49.160;8.580;2023-02-15T03:26:50;3.00;99.90
46490;DHT22;32204;49.160;8.580;2023-02-15T03:29:20;3.10;99.90
46490;DHT22;32204;49.160;8.580;2023-02-15T03:31:51;3.00;99.90
46490;DHT22;32204;49.160;8.580;2023-02-15T03:34:18;2.90;99.90
46490;DHT22;32204;49.160;8.580;2023-02-15T03:36:56;2.80;99.90
46490;DHT22;32204;49.160;8.580;2023-02-15T03:44:56;2.50;99.90
46490;DHT22;32204;49.160;8.580;2023-02-15T03:47:30;2.40;99.90
46490;DHT22;32204;49.160;8.580;2023-02-15T03:50:13;2.40;99.90
46490;DHT22;32204;49.160;8.580;2023-02-15T03:53:02;2.30;99.90
46490;DHT22;32204;49.160;8.580;2023-02-15T03:55:30;2.50;99.90
46490;DHT22;32204;49.160;8.580;2023-02-15T03:57:56;2.60;99.90
46490;DHT22;32204;49.160;8.580;2023-02-15T04:00:47;2.60;99.90
46490;DHT22;32204;49.160;8.580;2023-02-15T04:04:10;2.70;99.90
46490;DHT22;32204;49.160;8.580;2023-02-15T04:06:37;2.70;99.90
46490;DHT22;32204;49.160;8.580;2023-02-15T04:09:02;2.80;99.90
46490;DHT22;32204;49.160;8.580;2023-02-15T04:11:47;2.70;99.90
46490;DHT22;32204;49.160;8.580;2023-02-15T04:14:12;2.70;99.90
46490;DHT22;32204;49.160;8.580;2023-02-15T04:16:56;2.70;99.90
46490;DHT22;32204;49.160;8.580;2023-02-15T04:19:22;2.70;99.90
46490;DHT22;32204;49.160;8.580;2023-02-15T04:22:06;2.80;99.90
46490;DHT22;32204;49.160;8.580;2023-02-15T04:24:50;2.80;99.90
46490;DHT22;32204;49.160;8.580;2023-02-15T04:27:34;2.70;99.90
46490;DHT22;32204;49.160;8.580;2023-02-15T04:30:00;2.70;99.90
46490;DHT22;32204;49.160;8.580;2023-02-15T04:32:26;2.70;99.90
46490;DHT22;32204;49.160;8.580;2023-02-15T04:34:52;2.60;99.90
46490;DHT22;32204;49.160;8.580;2023-02-15T04:37:18;2.60;99.90
46490;DHT22;32204;49.160;8.580;2023-02-15T04:39:44;2.60;99.90
46490;DHT22;32204;49.160;8.580;2023-02-15T04:42:09;2.50;99.90
46490;DHT22;32204;49.160;8.580;2023-02-15T04:44:35;2.40;99.90
46490;DHT22;32204;49.160;8.580;2023-02-15T04:47:00;2.40;99.90
46490;DHT22;32204;49.160;8.580;2023-02-15T04:49:26;2.40;99.90
46490;DHT22;32204;49.160;8.580;2023-02-15T04:51:52;2.50;99.90
46490;DHT22;32204;49.160;8.580;2023-02-15T04:54:17;2.60;99.90
46490;DHT22;32204;49.160;8.580;2023-02-15T04:56:43;2.50;99.90
46490;DHT22;32204;49.160;8.580;2023-02-15T04:59:12;2.30;99.90
46490;DHT22;32204;49.160;8.580;2023-02-15T05:01:38;2.40;99.90
46490;DHT22;32204;49.160;8.580;2023-02-15T05:04:03;2.40;99.90
46490;DHT22;32204;49.160;8.580;2023-02-15T05:06:29;2.40;99.90
46490;DHT22;32204;49.160;8.580;2023-02-15T05:08:55;2.20;99.90
46490;DHT22;32204;49.160;8.580;2023-02-15T05:11:20;2.10;99.90
46490;DHT22;32204;49.160;8.580;2023-02-15T05:13:46;2.00;99.90
46490;DHT22;32204;49.160;8.580;2023-02-15T05:16:12;1.90;99.90
46490;DHT22;32204;49.160;8.580;2023-02-15T05:18:37;1.90;99.90
46490;DHT22;32204;49.160;8.580;2023-02-15T05:21:03;1.90;99.90
46490;DHT22;32204;49.160;8.580;2023-02-15T05:23:28;2.10;99.90
46490;DHT22;32204;49.160;8.580;2023-02-15T05:25:54;2.00;99.90
46490;DHT22;32204;49.160;8.580;2023-02-15T05:28:39;2.00;99.90
46490;DHT22;32204;49.160;8.580;2023-02-15T05:33:37;2.10;99.90
46490;DHT22;32204;49.160;8.580;2023-02-15T05:36:04;2.20;99.90
46490;DHT22;32204;49.160;8.580;2023-02-15T05:38:30;2.20;99.90
46490;DHT22;32204;49.160;8.580;2023-02-15T05:40:56;2.10;99.90
46490;DHT22;32204;49.160;8.580;2023-02-15T05:43:22;2.10;99.90
46490;DHT22;32204;49.160;8.580;2023-02-15T05:45:51;2.10;99.90
46490;DHT22;32204;49.160;8.580;2023-02-15T05:48:18;2.20;99.90
46490;DHT22;32204;49.160;8.580;2023-02-15T05:50:45;2.30;99.90
46490;DHT22;32204;49.160;8.580;2023-02-15T05:53:11;2.20;99.90
46490;DHT22;32204;49.160;8.580;2023-02-15T05:55:40;2.30;99.90
46490;DHT22;32204;49.160;8.580;2023-02-15T05:58:06;2.20;99.90
46490;DHT22;32204;49.160;8.580;2023-02-15T06:00:33;2.10;99.90
46490;DHT22;32204;49.160;8.580;2023-02-15T06:02:59;2.00;99.90
46490;DHT22;32204;49.160;8.580;2023-02-15T06:05:24;1.90;99.90
46490;DHT22;32204;49.160;8.580;2023-02-15T06:07:50;1.90;99.90
46490;DHT22;32204;49.160;8.580;2023-02-15T06:10:15;1.80;99.90
46490;DHT22;32204;49.160;8.580;2023-02-15T06:12:41;1.90;99.90
46490;DHT22;32204;49.160;8.580;2023-02-15T06:15:07;1.90;99.90
46490;DHT22;32204;49.160;8.580;2023-02-15T06:17:33;2.00;99.90
46490;DHT22;32204;49.160;8.580;2023-02-15T06:19:58;2.00;99.90
46490;DHT22;32204;49.160;8.580;2023-02-15T06:22:24;2.00;99.90
46490;DHT22;32204;49.160;8.580;2023-02-15T06:24:49;2.00;99.90
46490;DHT22;32204;49.160;8.580;2023-02-15T06:27:15;2.00;99.90
46490;DHT22;32204;49.160;8.580;2023-02-15T06:29:41;2.00;99.90
46490;DHT22;32204;49.160;8.580;2023-02-15T06:32:06;1.90;99.90
46490;DHT22;32204;49.160;8.580;2023-02-15T06:34:32;2.00;99.90
46490;DHT22;32204;49.160;8.580;2023-02-15T06:36:58;2.00;99.90
46490;DHT22;32204;49.160;8.580;2023-02-15T06:39:23;1.90;99.90
46490;DHT22;32204;49.160;8.580;2023-02-15T06:41:49;1.90;99.90
46490;DHT22;32204;49.160;8.580;2023-02-15T06:44:14;1.90;99.90
46490;DHT22;32204;49.160;8.580;2023-02-15T06:46:43;2.00;99.90
46490;DHT22;32204;49.160;8.580;2023-02-15T06:49:08;1.90;99.90
46490;DHT22;32204;49.160;8.580;2023-02-15T06:51:34;1.80;99.90
46490;DHT22;32204;49.160;8.580;2023-02-15T06:54:00;1.70;99.90
46490;DHT22;32204;49.160;8.580;2023-02-15T06:56:26;1.60;99.90
46490;DHT22;32204;49.160;8.580;2023-02-15T06:58:51;1.70;99.90
46490;DHT22;32204;49.160;8.580;2023-02-15T07:01:18;1.70;99.90
46490;DHT22;32204;49.160;8.580;2023-02-15T07:03:44;1.70;99.90
46490;DHT22;32204;49.160;8.580;2023-02-15T07:06:10;1.80;99.90
46490;DHT22;32204;49.160;8.580;2023-02-15T07:08:37;2.00;99.90
46490;DHT22;32204;49.160;8.580;2023-02-15T07:11:03;1.90;99.90
46490;DHT22;32204;49.160;8.580;2023-02-15T07:13:48;2.00;99.90
46490;DHT22;32204;49.160;8.580;2023-02-15T07:16:14;2.00;99.90
46490;DHT22;32204;49.160;8.580;2023-02-15T07:18:39;2.20;99.90
46490;DHT22;32204;49.160;8.580;2023-02-15T07:21:05;2.30;99.90
46490;DHT22;32204;49.160;8.580;2023-02-15T07:23:36;2.30;99.90
46490;DHT22;32204;49.160;8.580;2023-02-15T07:26:03;2.30;99.90
46490;DHT22;32204;49.160;8.580;2023-02-15T07:28:29;2.40;99.90
46490;DHT22;32204;49.160;8.580;2023-02-15T07:30:55;2.40;99.90
46490;DHT22;32204;49.160;8.580;2023-02-15T07:33:22;2.40;99.90
46490;DHT22;32204;49.160;8.580;2023-02-15T07:35:53;2.40;99.90
46490;DHT22;32204;49.160;8.580;2023-02-15T07:38:20;2.40;99.90
46490;DHT22;32204;49.160;8.580;2023-02-15T07:40:46;2.50;99.90
46490;DHT22;32204;49.160;8.580;2023-02-15T07:43:12;2.60;99.90
46490;DHT22;32204;49.160;8.580;2023-02-15T07:45:38;2.60;99.90
46490;DHT22;32204;49.160;8.580;2023-02-15T07:48:04;2.50;99.90
46490;DHT22;32204;49.160;8.580;2023-02-15T07:50:31;2.60;99.90
46490;DHT22;32204;49.160;8.580;2023-02-15T07:52:57;2.60;99.90
46490;DHT22;32204;49.160;8.580;2023-02-15T07:55:23;2.60;99.90
46490;DHT22;32204;49.160;8.580;2023-02-15T07:57:51;2.60;99.90
46490;DHT22;32204;49.160;8.580;2023-02-15T08:00:18;2.60;99.90
46490;DHT22;32204;49.160;8.580;2023-02-15T08:02:55;2.70;99.90
46490;DHT22;32204;49.160;8.580;2023-02-15T08:05:44;2.80;99.90
46490;DHT22;32204;49.160;8.580;2023-02-15T08:08:11;2.70;99.90
46490;DHT22;32204;49.160;8.580;2023-02-15T08:11:15;2.80;99.90
46490;DHT22;32204;49.160;8.580;2023-02-15T08:14:12;2.70;99.90
46490;DHT22;32204;49.160;8.580;2023-02-15T08:19:10;2.60;99.90
46490;DHT22;32204;49.160;8.580;2023-02-15T08:21:39;2.60;99.90
46490;DHT22;32204;49.160;8.580;2023-02-15T08:24:05;2.60;99.90
46490;DHT22;32204;49.160;8.580;2023-02-15T08:26:32;2.60;99.90
46490;DHT22;32204;49.160;8.580;2023-02-15T08:29:00;2.50;99.90
46490;DHT22;32204;49.160;8.580;2023-02-15T08:31:26;2.60;99.90
46490;DHT22;32204;49.160;8.580;2023-02-15T08:33:54;2.70;99.90
46490;DHT22;32204;49.160;8.580;2023-02-15T08:36:22;2.70;99.90
46490;DHT22;32204;49.160;8.580;2023-02-15T08:38:48;2.70;99.90
46490;DHT22;32204;49.160;8.580;2023-02-15T08:41:21;2.80;99.90
46490;DHT22;32204;49.160;8.580;2023-02-15T08:43:49;2.80;99.90
46490;DHT22;32204;49.160;8.580;2023-02-15T08:46:17;2.90;99.90
46490;DHT22;32204;49.160;8.580;2023-02-15T08:48:43;2.90;99.90
46490;DHT22;32204;49.160;8.580;2023-02-15T08:51:14;2.80;99.90
46490;DHT22;32204;49.160;8.580;2023-02-15T08:53:42;2.80;99.90
46490;DHT22;32204;49.160;8.580;2023-02-15T08:56:08;2.70;99.90
46490;DHT22;32204;49.160;8.580;2023-02-15T08:58:34;2.50;99.90
46490;DHT22;32204;49.160;8.580;2023-02-15T09:01:00;2.40;99.90
46490;DHT22;32204;49.160;8.580;2023-02-15T09:03:27;2.10;99.90
46490;DHT22;32204;49.160;8.580;2023-02-15T09:05:58;2.00;99.90
46490;DHT22;32204;49.160;8.580;2023-02-15T09:08:23;2.20;99.90
46490;DHT22;32204;49.160;8.580;2023-02-15T09:10:49;2.30;99.90
46490;DHT22;32204;49.160;8.580;2023-02-15T09:13:14;2.30;99.90
46490;DHT22;32204;49.160;8.580;2023-02-15T09:15:40;2.40;99.90
46490;DHT22;32204;49.160;8.580;2023-02-15T09:18:06;2.50;99.90
46490;DHT22;32204;49.160;8.580;2023-02-15T09:20:34;2.70;99.90
46490;DHT22;32204;49.160;8.580;2023-02-15T09:23:00;2.80;99.90
46490;DHT22;32204;49.160;8.580;2023-02-15T09:25:26;2.90;99.90
46490;DHT22;32204;49.160;8.580;2023-02-15T09:27:52;2.80;99.90
46490;DHT22;32204;49.160;8.580;2023-02-15T09:30:18;2.70;99.90
46490;DHT22;32204;49.160;8.580;2023-02-15T09:32:44;2.70;99.90
46490;DHT22;32204;49.160;8.580;2023-02-15T09:35:11;2.80;99.90
46490;DHT22;32204;49.160;8.580;2023-02-15T09:37:37;2.80;99.90
46490;DHT22;32204;49.160;8.580;2023-02-15T09:40:03;2.80;99.90
46490;DHT22;32204;49.160;8.580;2023-02-15T09:42:37;2.90;99.90
46490;DHT22;32204;49.160;8.580;2023-02-15T09:45:26;3.00;99.90
46490;DHT22;32204;49.160;8.580;2023-02-15T09:48:52;3.10;99.90
46490;DHT22;32204;49.160;8.580;2023-02-15T09:51:19;3.00;99.90
46490;DHT22;32204;49.160;8.580;2023-02-15T09:56:45;3.10;99.90
46490;DHT22;32204;49.160;8.580;2023-02-15T10:07:22;3.00;99.90
46490;DHT22;32204;49.160;8.580;2023-02-15T10:18:23;3.30;99.90
46490;DHT22;32204;49.160;8.580;2023-02-15T10:21:16;3.30;99.90
46490;DHT22;32204;49.160;8.580;2023-02-15T10:26:47;3.30;99.90
46490;DHT22;32204;49.160;8.580;2023-02-15T10:29:27;3.30;99.90
46490;DHT22;32204;49.160;8.580;2023-02-15T10:32:17;3.40;99.90
46490;DHT22;32204;49.160;8.580;2023-02-15T10:46:22;3.00;99.90
46490;DHT22;32204;49.160;8.580;2023-02-15T10:52:25;2.70;99.90
46490;DHT22;32204;49.160;8.580;2023-02-15T10:55:06;2.70;99.90
46490;DHT22;32204;49.160;8.580;2023-02-15T10:57:55;2.60;99.90
46490;DHT22;32204;49.160;8.580;2023-02-15T11:04:06;3.10;99.90
46490;DHT22;32204;49.160;8.580;2023-02-15T11:06:35;2.90;99.90
46490;DHT22;32204;49.160;8.580;2023-02-15T11:09:13;3.10;99.90
46490;DHT22;32204;49.160;8.580;2023-02-15T11:11:42;3.30;99.90
46490;DHT22;32204;49.160;8.580;2023-02-15T11:14:18;3.50;99.90
46490;DHT22;32204;49.160;8.580;2023-02-15T11:16:49;3.70;99.90
46490;DHT22;32204;49.160;8.580;2023-02-15T11:19:31;3.70;99.90
46490;DHT22;32204;49.160;8.580;2023-02-15T11:22:01;3.60;99.90
46490;DHT22;32204;49.160;8.580;2023-02-15T11:24:30;3.50;99.90
46490;DHT22;32204;49.160;8.580;2023-02-15T11:27:02;3.40;99.90
46490;DHT22;32204;49.160;8.580;2023-02-15T11:29:40;3.60;99.90
46490;DHT22;32204;49.160;8.580;2023-02-15T11:32:32;3.70;99.90
46490;DHT22;32204;49.160;8.580;2023-02-15T11:37:46;3.50;99.90
46490;DHT22;32204;49.160;8.580;2023-02-15T11:42:45;3.70;99.90
46490;DHT22;32204;49.160;8.580;2023-02-15T11:47:47;4.00;99.90
46490;DHT22;32204;49.160;8.580;2023-02-15T11:50:20;4.00;99.90
46490;DHT22;32204;49.160;8.580;2023-02-15T11:52:49;4.10;99.90
46490;DHT22;32204;49.160;8.580;2023-02-15T11:55:20;4.10;99.90
46490;DHT22;32204;49.160;8.580;2023-02-15T12:00:49;3.90;99.90
46490;DHT22;32204;49.160;8.580;2023-02-15T12:03:17;3.90;99.90
46490;DHT22;32204;49.160;8.580;2023-02-15T12:05:45;3.80;99.90
46490;DHT22;32204;49.160;8.580;2023-02-15T12:08:19;3.60;99.90
46490;DHT22;32204;49.160;8.580;2023-02-15T12:10:57;3.70;99.90
46490;DHT22;32204;49.160;8.580;2023-02-15T12:13:25;4.10;99.90
46490;DHT22;32204;49.160;8.580;2023-02-15T12:15:54;4.30;99.90
46490;DHT22;32204;49.160;8.580;2023-02-15T12:18:42;4.40;99.90
46490;DHT22;32204;49.160;8.580;2023-02-15T12:21:15;4.40;99.90
46490;DHT22;32204;49.160;8.580;2023-02-15T12:23:52;4.10;99.90
46490;DHT22;32204;49.160;8.580;2023-02-15T12:26:32;3.90;99.90
46490;DHT22;32204;49.160;8.580;2023-02-15T12:29:01;3.80;99.90
46490;DHT22;32204;49.160;8.580;2023-02-15T12:31:39;3.70;99.90
46490;DHT22;32204;49.160;8.580;2023-02-15T12:34:30;3.60;99.90
46490;DHT22;32204;49.160;8.580;2023-02-15T12:37:01;3.70;99.90
46490;DHT22;32204;49.160;8.580;2023-02-15T12:39:28;3.70;99.90
46490;DHT22;32204;49.160;8.580;2023-02-15T12:44:22;3.80;99.90
46490;DHT22;32204;49.160;8.580;2023-02-15T12:49:27;3.70;99.90
46490;DHT22;32204;49.160;8.580;2023-02-15T12:51:55;3.80;99.90
46490;DHT22;32204;49.160;8.580;2023-02-15T12:54:31;3.60;99.90
46490;DHT22;32204;49.160;8.580;2023-02-15T12:56:59;3.80;99.90
46490;DHT22;32204;49.160;8.580;2023-02-15T12:59:24;3.90;99.90
46490;DHT22;32204;49.160;8.580;2023-02-15T13:01:52;3.80;99.90
46490;DHT22;32204;49.160;8.580;2023-02-15T13:04:27;3.90;99.90
46490;DHT22;32204;49.160;8.580;2023-02-15T13:06:56;3.90;99.90
46490;DHT22;32204;49.160;8.580;2023-02-15T13:14:50;3.70;99.90
46490;DHT22;32204;49.160;8.580;2023-02-15T13:17:19;3.60;99.90
46490;DHT22;32204;49.160;8.580;2023-02-15T13:19:48;3.50;99.90
46490;DHT22;32204;49.160;8.580;2023-02-15T13:25:20;3.60;99.90
46490;DHT22;32204;49.160;8.580;2023-02-15T13:28:12;3.60;99.90
46490;DHT22;32204;49.160;8.580;2023-02-15T13:30:40;3.90;99.90
46490;DHT22;32204;49.160;8.580;2023-02-15T13:33:39;3.90;99.90
46490;DHT22;32204;49.160;8.580;2023-02-15T13:36:21;4.20;99.90
46490;DHT22;32204;49.160;8.580;2023-02-15T13:38:59;4.40;99.90
46490;DHT22;32204;49.160;8.580;2023-02-15T13:41:56;4.60;99.90
46490;DHT22;32204;49.160;8.580;2023-02-15T13:44:39;4.60;99.90
46490;DHT22;32204;49.160;8.580;2023-02-15T13:47:27;4.50;99.90
46490;DHT22;32204;49.160;8.580;2023-02-15T13:50:23;4.40;99.90
46490;DHT22;32204;49.160;8.580;2023-02-15T14:10:06;4.30;99.90
46490;DHT22;32204;49.160;8.580;2023-02-15T14:18:26;4.50;99.90
46490;DHT22;32204;49.160;8.580;2023-02-15T14:23:44;4.80;99.90
46490;DHT22;32204;49.160;8.580;2023-02-15T14:31:54;5.00;99.90
46490;DHT22;32204;49.160;8.580;2023-02-15T14:34:41;4.90;99.90
46490;DHT22;32204;49.160;8.580;2023-02-15T14:37:11;4.90;99.90
46490;DHT22;32204;49.160;8.580;2023-02-15T14:42:40;4.80;99.90
46490;DHT22;32204;49.160;8.580;2023-02-15T14:45:19;5.00;99.90
46490;DHT22;32204;49.160;8.580;2023-02-15T14:48:12;4.90;99.90
46490;DHT22;32204;49.160;8.580;2023-02-15T14:50:46;4.80;99.90
46490;DHT22;32204;49.160;8.580;2023-02-15T14:56:15;4.80;99.90
46490;DHT22;32204;49.160;8.580;2023-02-15T15:01:25;4.90;99.90
46490;DHT22;32204;49.160;8.580;2023-02-15T15:03:54;5.10;99.90
46490;DHT22;32204;49.160;8.580;2023-02-15T15:06:36;5.20;99.90
46490;DHT22;32204;49.160;8.580;2023-02-15T15:09:29;5.00;99.90
46490;DHT22;32204;49.160;8.580;2023-02-15T15:15:01;5.40;99.90
46490;DHT22;32204;49.160;8.580;2023-02-15T15:20:13;5.40;99.90
46490;DHT22;32204;49.160;8.580;2023-02-15T15:22:41;5.50;99.90
46490;DHT22;32204;49.160;8.580;2023-02-15T15:28:01;5.50;99.90
46490;DHT22;32204;49.160;8.580;2023-02-15T15:35:50;5.20;99.90
46490;DHT22;32204;49.160;8.580;2023-02-15T15:49:34;5.50;99.90
46490;DHT22;32204;49.160;8.580;2023-02-15T15:52:08;5.50;99.90
46490;DHT22;32204;49.160;8.580;2023-02-15T15:54:38;5.40;99.90
46490;DHT22;32204;49.160;8.580;2023-02-15T15:57:16;5.40;99.90
46490;DHT22;32204;49.160;8.580;2023-02-15T15:59:45;5.60;99.90
46490;DHT22;32204;49.160;8.580;2023-02-15T16:02:14;5.70;99.90
46490;DHT22;32204;49.160;8.580;2023-02-15T16:04:43;5.60;99.90
46490;DHT22;32204;49.160;8.580;2023-02-15T16:12:30;5.60;99.90
46490;DHT22;32204;49.160;8.580;2023-02-15T16:14:56;5.50;99.90
46490;DHT22;32204;49.160;8.580;2023-02-15T16:17:24;5.40;99.90
46490;DHT22;32204;49.160;8.580;2023-02-15T16:19:52;5.40;99.90
46490;DHT22;32204;49.160;8.580;2023-02-15T16:22:21;5.30;99.90
46490;DHT22;32204;49.160;8.580;2023-02-15T16:27:34;5.40;48.90
46490;DHT22;32204;49.160;8.580;2023-02-15T16:32:49;5.30;1.00
46490;DHT22;32204;49.160;8.580;2023-02-15T16:35:19;5.30;1.00
46490;DHT22;32204;49.160;8.580;2023-02-15T16:37:45;5.30;1.00
46490;DHT22;32204;49.160;8.580;2023-02-15T16:42:50;5.20;1.00
46490;DHT22;32204;49.160;8.580;2023-02-15T16:45:18;5.10;1.00
46490;DHT22;32204;49.160;8.580;2023-02-15T16:47:46;4.80;1.00
46490;DHT22;32204;49.160;8.580;2023-02-15T16:50:22;4.70;1.00
46490;DHT22;32204;49.160;8.580;2023-02-15T16:52:49;4.60;1.00
46490;DHT22;32204;49.160;8.580;2023-02-15T16:55:29;4.60;1.00
46490;DHT22;32204;49.160;8.580;2023-02-15T16:58:01;4.60;1.00
46490;DHT22;32204;49.160;8.580;2023-02-15T17:00:31;4.60;1.00
46490;DHT22;32204;49.160;8.580;2023-02-15T17:05:45;4.60;1.00
46490;DHT22;32204;49.160;8.580;2023-02-15T17:11:21;4.50;1.00
46490;DHT22;32204;49.160;8.580;2023-02-15T17:14:12;4.50;1.00
46490;DHT22;32204;49.160;8.580;2023-02-15T17:16:45;4.30;1.00
46490;DHT22;32204;49.160;8.580;2023-02-15T17:21:54;4.00;1.00
46490;DHT22;32204;49.160;8.580;2023-02-15T17:24:39;3.90;1.00
46490;DHT22;32204;49.160;8.580;2023-02-15T17:27:18;3.90;1.00
46490;DHT22;32204;49.160;8.580;2023-02-15T17:29:49;3.90;1.00
46490;DHT22;32204;49.160;8.580;2023-02-15T17:32:22;3.80;1.00
46490;DHT22;32204;49.160;8.580;2023-02-15T17:40:10;3.80;1.00
46490;DHT22;32204;49.160;8.580;2023-02-15T17:42:39;3.80;1.00
46490;DHT22;32204;49.160;8.580;2023-02-15T17:45:05;3.80;1.00
46490;DHT22;32204;49.160;8.580;2023-02-15T17:47:31;3.70;1.00
46490;DHT22;32204;49.160;8.580;2023-02-15T17:49:57;3.70;1.00
46490;DHT22;32204;49.160;8.580;2023-02-15T17:52:23;3.70;1.00
46490;DHT22;32204;49.160;8.580;2023-02-15T17:54:50;3.70;1.00
46490;DHT22;32204;49.160;8.580;2023-02-15T17:57:34;3.60;1.00
46490;DHT22;32204;49.160;8.580;2023-02-15T18:00:00;3.50;1.00
46490;DHT22;32204;49.160;8.580;2023-02-15T18:02:45;3.30;1.00
46490;DHT22;32204;49.160;8.580;2023-02-15T18:05:30;3.10;1.00
46490;DHT22;32204;49.160;8.580;2023-02-15T18:08:16;3.00;1.00
46490;DHT22;32204;49.160;8.580;2023-02-15T18:11:01;2.90;1.00
46490;DHT22;32204;49.160;8.580;2023-02-15T18:13:45;3.00;1.00
46490;DHT22;32204;49.160;8.580;2023-02-15T18:16:23;3.10;1.00
46490;DHT22;32204;49.160;8.580;2023-02-15T18:18:51;3.00;1.00
46490;DHT22;32204;49.160;8.580;2023-02-15T18:21:17;2.90;1.00
46490;DHT22;32204;49.160;8.580;2023-02-15T18:23:43;2.90;1.00
46490;DHT22;32204;49.160;8.580;2023-02-15T18:26:16;2.90;1.00
46490;DHT22;32204;49.160;8.580;2023-02-15T18:28:42;2.90;1.00
46490;DHT22;32204;49.160;8.580;2023-02-15T18:31:09;2.80;1.00
46490;DHT22;32204;49.160;8.580;2023-02-15T18:33:39;2.80;1.00
46490;DHT22;32204;49.160;8.580;2023-02-15T18:36:08;2.80;1.00
46490;DHT22;32204;49.160;8.580;2023-02-15T18:38:37;2.80;1.00
46490;DHT22;32204;49.160;8.580;2023-02-15T18:41:03;2.70;1.00
46490;DHT22;32204;49.160;8.580;2023-02-15T18:43:30;2.70;1.00
46490;DHT22;32204;49.160;8.580;2023-02-15T18:45:55;2.60;1.00
46490;DHT22;32204;49.160;8.580;2023-02-15T18:48:21;2.60;1.00
46490;DHT22;32204;49.160;8.580;2023-02-15T18:50:47;2.60;1.00
46490;DHT22;32204;49.160;8.580;2023-02-15T18:53:17;2.70;1.00
46490;DHT22;32204;49.160;8.580;2023-02-15T18:55:44;2.70;1.00
46490;DHT22;32204;49.160;8.580;2023-02-15T18:58:18;2.70;1.00
46490;DHT22;32204;49.160;8.580;2023-02-15T19:00:44;2.70;5.90
46490;DHT22;32204;49.160;8.580;2023-02-15T19:03:16;2.70;1.00
46490;DHT22;32204;49.160;8.580;2023-02-15T19:05:44;2.70;1.00
46490;DHT22;32204;49.160;8.580;2023-02-15T19:08:22;2.80;1.00
46490;DHT22;32204;49.160;8.580;2023-02-15T19:10:50;2.80;1.00
46490;DHT22;32204;49.160;8.580;2023-02-15T19:13:16;2.70;1.00
46490;DHT22;32204;49.160;8.580;2023-02-15T19:15:42;2.70;1.00
46490;DHT22;32204;49.160;8.580;2023-02-15T19:18:08;2.60;1.00
46490;DHT22;32204;49.160;8.580;2023-02-15T19:20:35;2.60;1.00